createdAt,value
2019-02-27T00:00:11.433Z,1003.95
2019-02-27T00:01:09.725Z,1003.96
2019-02-27T00:02:09.668Z,1003.95
2019-02-27T00:03:09.634Z,1003.97
2019-02-27T00:04:09.623Z,1003.94
2019-02-27T00:05:09.617Z,1003.97
2019-02-27T00:06:09.605Z,1003.94
2019-02-27T00:07:09.660Z,1003.97
2019-02-27T00:08:09.583Z,1003.95
2019-02-27T00:09:09.570Z,1003.92
2019-02-27T00:10:09.565Z,1003.89
2019-02-27T00:11:09.956Z,1003.91
2019-02-27T00:12:09.554Z,1003.89
2019-02-27T00:13:09.573Z,1003.86
2019-02-27T00:14:09.510Z,1003.82
2019-02-27T00:15:09.502Z,1003.84
2019-02-27T00:16:11.155Z,1003.81
2019-02-27T00:17:09.502Z,1003.78
2019-02-27T00:18:09.469Z,1003.83
2019-02-27T00:19:09.522Z,1003.85
2019-02-27T00:20:09.443Z,1003.79
2019-02-27T00:21:11.048Z,1003.77
2019-02-27T00:22:09.477Z,1003.76
2019-02-27T00:23:09.410Z,1003.76
2019-02-27T00:24:09.422Z,1003.76
2019-02-27T00:25:09.390Z,1003.72
2019-02-27T00:26:09.609Z,1003.72
2019-02-27T00:27:09.373Z,1003.72
2019-02-27T00:28:09.426Z,1003.71
2019-02-27T00:29:09.346Z,1003.73
2019-02-27T00:30:09.334Z,1003.69
2019-02-27T00:31:11.563Z,1003.69
2019-02-27T00:32:09.341Z,1003.70
2019-02-27T00:33:09.328Z,1003.64
2019-02-27T00:34:09.290Z,1003.62
2019-02-27T00:35:09.286Z,1003.62
2019-02-27T00:36:11.964Z,1003.63
2019-02-27T00:37:09.256Z,1003.62
2019-02-27T00:38:09.313Z,1003.62
2019-02-27T00:39:09.238Z,1003.64
2019-02-27T00:40:09.227Z,1003.64
2019-02-27T00:41:11.990Z,1003.61
2019-02-27T00:42:09.200Z,1003.69
2019-02-27T00:43:09.215Z,1003.65
2019-02-27T00:44:09.228Z,1003.65
2019-02-27T00:45:09.173Z,1003.67
2019-02-27T00:46:10.763Z,1003.61
2019-02-27T00:47:09.158Z,1003.62
2019-02-27T00:48:09.160Z,1003.60
2019-02-27T00:49:09.126Z,1003.61
2019-02-27T00:50:09.157Z,1003.57
2019-02-27T00:51:09.653Z,1003.58
2019-02-27T00:52:09.095Z,1003.54
2019-02-27T00:53:09.105Z,1003.61
2019-02-27T00:54:09.074Z,1003.60
2019-02-27T00:55:09.065Z,1003.58
2019-02-27T00:56:11.948Z,1003.60
2019-02-27T00:57:09.051Z,1003.58
2019-02-27T00:58:09.051Z,1003.56
2019-02-27T00:59:09.017Z,1003.52
2019-02-27T01:00:09.020Z,1003.52
2019-02-27T01:01:10.044Z,1003.53
2019-02-27T01:02:08.986Z,1003.53
2019-02-27T01:03:08.998Z,1003.51
2019-02-27T01:04:08.961Z,1003.52
2019-02-27T01:05:09.447Z,1003.49
2019-02-27T01:06:08.945Z,1003.46
2019-02-27T01:07:08.958Z,1003.51
2019-02-27T01:08:08.944Z,1003.57
2019-02-27T01:09:08.928Z,1003.49
2019-02-27T01:10:12.016Z,1003.53
2019-02-27T01:11:08.891Z,1003.47
2019-02-27T01:12:08.883Z,1003.50
2019-02-27T01:13:08.919Z,1003.47
2019-02-27T01:14:08.854Z,1003.49
2019-02-27T01:15:10.536Z,1003.46
2019-02-27T01:16:08.846Z,1003.43
2019-02-27T01:17:08.821Z,1003.45
2019-02-27T01:18:08.838Z,1003.47
2019-02-27T01:19:08.843Z,1003.39
2019-02-27T01:20:11.183Z,1003.39
2019-02-27T01:21:08.788Z,1003.40
2019-02-27T01:22:08.767Z,1003.38
2019-02-27T01:23:10.934Z,1003.38
2019-02-27T01:24:08.746Z,1003.35
2019-02-27T01:25:08.732Z,1003.37
2019-02-27T01:26:08.758Z,1003.33
2019-02-27T01:27:08.714Z,1003.38
2019-02-27T01:28:10.963Z,1003.36
2019-02-27T01:29:08.696Z,1003.35
2019-02-27T01:30:08.683Z,1003.33
2019-02-27T01:31:08.668Z,1003.32
2019-02-27T01:32:08.703Z,1003.31
2019-02-27T01:33:08.678Z,1003.32
2019-02-27T01:34:11.141Z,1003.30
2019-02-27T01:35:08.625Z,1003.28
2019-02-27T01:36:08.614Z,1003.29
2019-02-27T01:37:08.600Z,1003.31
2019-02-27T01:38:08.636Z,1003.31
2019-02-27T01:39:09.019Z,1003.33
2019-02-27T01:40:08.571Z,1003.28
2019-02-27T01:41:08.558Z,1003.30
2019-02-27T01:42:08.547Z,1003.30
2019-02-27T01:43:08.565Z,1003.30
2019-02-27T01:44:11.096Z,1003.29
2019-02-27T01:45:09.516Z,1003.27
2019-02-27T01:46:08.505Z,1003.22
2019-02-27T01:47:08.491Z,1003.25
2019-02-27T01:48:09.222Z,1003.21
2019-02-27T01:49:08.469Z,1003.23
2019-02-27T01:50:08.500Z,1003.20
2019-02-27T01:51:08.452Z,1003.20
2019-02-27T01:52:08.445Z,1003.16
2019-02-27T01:53:08.461Z,1003.18
2019-02-27T01:54:08.417Z,1003.12
2019-02-27T01:55:08.407Z,1003.20
2019-02-27T01:56:08.499Z,1003.11
2019-02-27T01:57:08.383Z,1003.13
2019-02-27T01:58:09.567Z,1003.09
2019-02-27T01:59:08.385Z,1003.10
2019-02-27T02:00:08.360Z,1003.03
2019-02-27T02:01:08.341Z,1003.03
2019-02-27T02:02:08.389Z,1003.04
2019-02-27T02:03:08.319Z,1003.00
2019-02-27T02:04:08.330Z,1002.98
2019-02-27T02:05:08.334Z,1002.99
2019-02-27T02:06:08.281Z,1002.97
2019-02-27T02:07:08.276Z,1002.95
2019-02-27T02:08:08.316Z,1002.93
2019-02-27T02:09:08.279Z,1002.93
2019-02-27T02:10:08.237Z,1002.92
2019-02-27T02:11:08.227Z,1002.89
2019-02-27T02:12:08.775Z,1002.87
2019-02-27T02:13:08.208Z,1002.89
2019-02-27T02:14:08.261Z,1002.88
2019-02-27T02:15:08.182Z,1002.84
2019-02-27T02:16:08.175Z,1002.84
2019-02-27T02:17:08.164Z,1002.80
2019-02-27T02:18:08.150Z,1002.79
2019-02-27T02:19:08.167Z,1002.76
2019-02-27T02:20:08.182Z,1002.77
2019-02-27T02:21:08.117Z,1002.76
2019-02-27T02:22:08.877Z,1002.76
2019-02-27T02:23:08.099Z,1002.72
2019-02-27T02:24:08.113Z,1002.74
2019-02-27T02:25:08.081Z,1002.68
2019-02-27T02:26:08.074Z,1002.70
2019-02-27T02:27:08.786Z,1002.69
2019-02-27T02:28:08.085Z,1002.67
2019-02-27T02:29:08.056Z,1002.65
2019-02-27T02:30:08.020Z,1002.64
2019-02-27T02:31:08.011Z,1002.60
2019-02-27T02:32:08.026Z,1002.62
2019-02-27T02:33:07.998Z,1002.59
2019-02-27T02:34:08.064Z,1002.52
2019-02-27T02:35:07.977Z,1002.55
2019-02-27T02:36:07.957Z,1002.48
2019-02-27T02:37:07.953Z,1002.51
2019-02-27T02:38:12.125Z,1002.49
2019-02-27T02:39:08.981Z,1002.53
2019-02-27T02:40:07.909Z,1002.52
2019-02-27T02:41:09.224Z,1002.45
2019-02-27T02:42:07.948Z,1002.42
2019-02-27T02:43:07.876Z,1002.43
2019-02-27T02:44:07.867Z,1002.41
2019-02-27T02:45:07.887Z,1002.40
2019-02-27T02:46:08.858Z,1002.45
2019-02-27T02:47:07.868Z,1002.37
2019-02-27T02:48:07.822Z,1002.40
2019-02-27T02:49:08.502Z,1002.34
2019-02-27T02:50:07.821Z,1002.35
2019-02-27T02:51:07.796Z,1002.31
2019-02-27T02:52:07.777Z,1002.36
2019-02-27T02:53:07.824Z,1002.32
2019-02-27T02:54:07.756Z,1002.31
2019-02-27T02:55:11.961Z,1002.30
2019-02-27T02:56:07.734Z,1002.29
2019-02-27T02:57:07.724Z,1002.28
2019-02-27T02:58:11.364Z,1002.25
2019-02-27T02:59:07.702Z,1002.23
2019-02-27T03:00:07.749Z,1002.24
2019-02-27T03:01:14.155Z,1002.23
2019-02-27T03:02:08.669Z,1002.24
2019-02-27T03:03:07.659Z,1002.26
2019-02-27T03:04:12.568Z,1002.30
2019-02-27T03:05:08.639Z,1002.22
2019-02-27T03:06:07.691Z,1002.26
2019-02-27T03:07:10.949Z,1002.22
2019-02-27T03:08:07.600Z,1002.22
2019-02-27T03:09:07.605Z,1002.18
2019-02-27T03:10:08.302Z,1002.16
2019-02-27T03:11:07.605Z,1002.15
2019-02-27T03:12:07.615Z,1002.13
2019-02-27T03:13:07.568Z,1002.14
2019-02-27T03:14:07.538Z,1002.13
2019-02-27T03:15:07.527Z,1002.09
2019-02-27T03:16:07.548Z,1002.04
2019-02-27T03:17:07.508Z,1002.08
2019-02-27T03:18:07.536Z,1002.12
2019-02-27T03:19:07.483Z,1002.10
2019-02-27T03:20:07.472Z,1002.08
2019-02-27T03:21:07.497Z,1002.05
2019-02-27T03:22:07.455Z,1002.07
2019-02-27T03:23:07.445Z,1002.03
2019-02-27T03:24:07.466Z,1002.04
2019-02-27T03:25:07.427Z,1002.04
2019-02-27T03:26:07.400Z,1001.99
2019-02-27T03:27:07.424Z,1001.99
2019-02-27T03:28:07.381Z,1002.04
2019-02-27T03:29:07.381Z,1001.98
2019-02-27T03:30:07.369Z,1001.97
2019-02-27T03:31:16.241Z,1001.96
2019-02-27T03:32:08.360Z,1002.03
2019-02-27T03:33:07.327Z,1001.96
2019-02-27T03:34:09.066Z,1002.00
2019-02-27T03:35:07.308Z,1001.99
2019-02-27T03:36:07.292Z,1002.04
2019-02-27T03:37:07.323Z,1002.02
2019-02-27T03:38:08.309Z,1002.01
2019-02-27T03:39:07.260Z,1002.02
2019-02-27T03:40:10.792Z,1002.07
2019-02-27T03:41:07.239Z,1002.02
2019-02-27T03:42:07.261Z,1002.01
2019-02-27T03:43:10.166Z,1002.01
2019-02-27T03:44:07.227Z,1001.99
2019-02-27T03:45:07.192Z,1002.00
2019-02-27T03:46:07.312Z,1002.03
2019-02-27T03:47:07.167Z,1002.01
2019-02-27T03:48:07.184Z,1002.01
2019-02-27T03:49:07.143Z,1001.99
2019-02-27T03:50:07.185Z,1002.02
2019-02-27T03:51:07.121Z,1002.01
2019-02-27T03:52:07.115Z,1002.00
2019-02-27T03:53:10.849Z,1001.97
2019-02-27T03:54:07.088Z,1001.97
2019-02-27T03:55:07.078Z,1001.98
2019-02-27T03:56:09.734Z,1001.99
2019-02-27T03:57:07.100Z,1001.99
2019-02-27T03:58:07.068Z,1001.96
2019-02-27T03:59:07.569Z,1001.93
2019-02-27T04:00:07.022Z,1001.92
2019-02-27T04:01:07.011Z,1001.94
2019-02-27T04:02:07.048Z,1002.00
2019-02-27T04:03:07.014Z,1001.90
2019-02-27T04:04:06.982Z,1001.91
2019-02-27T04:05:07.580Z,1001.90
2019-02-27T04:06:06.968Z,1001.89
2019-02-27T04:07:06.942Z,1001.90
2019-02-27T04:08:08.603Z,1001.86
2019-02-27T04:09:06.949Z,1001.90
2019-02-27T04:10:06.925Z,1001.93
2019-02-27T04:11:06.978Z,1001.92
2019-02-27T04:12:06.890Z,1001.93
2019-02-27T04:13:06.876Z,1001.95
2019-02-27T04:14:06.899Z,1001.95
2019-02-27T04:15:06.863Z,1001.93
2019-02-27T04:16:06.843Z,1001.92
2019-02-27T04:17:07.705Z,1001.98
2019-02-27T04:18:06.829Z,1001.95
2019-02-27T04:19:06.835Z,1001.93
2019-02-27T04:20:06.803Z,1001.94
2019-02-27T04:21:06.788Z,1001.94
2019-02-27T04:22:06.775Z,1001.93
2019-02-27T04:23:11.182Z,1001.96
2019-02-27T04:24:07.775Z,1001.94
2019-02-27T04:25:06.752Z,1001.93
2019-02-27T04:26:06.797Z,1001.93
2019-02-27T04:27:06.719Z,1001.93
2019-02-27T04:28:06.712Z,1001.88
2019-02-27T04:29:08.509Z,1001.89
2019-02-27T04:30:06.710Z,1001.85
2019-02-27T04:31:06.675Z,1001.86
2019-02-27T04:32:09.522Z,1001.86
2019-02-27T04:33:07.653Z,1001.86
2019-02-27T04:34:06.670Z,1001.81
2019-02-27T04:35:06.921Z,1001.85
2019-02-27T04:36:06.624Z,1001.79
2019-02-27T04:37:06.610Z,1001.82
2019-02-27T04:38:06.594Z,1001.82
2019-02-27T04:39:06.610Z,1001.73
2019-02-27T04:40:10.842Z,1001.76
2019-02-27T04:41:06.566Z,1001.78
2019-02-27T04:42:06.610Z,1001.73
2019-02-27T04:43:06.539Z,1001.71
2019-02-27T04:44:06.553Z,1001.73
2019-02-27T04:45:06.517Z,1001.73
2019-02-27T04:46:06.536Z,1001.71
2019-02-27T04:47:06.501Z,1001.72
2019-02-27T04:48:06.595Z,1001.73
2019-02-27T04:49:06.493Z,1001.70
2019-02-27T04:50:06.460Z,1001.67
2019-02-27T04:51:06.447Z,1001.68
2019-02-27T04:52:06.437Z,1001.68
2019-02-27T04:53:06.428Z,1001.65
2019-02-27T04:54:07.404Z,1001.66
2019-02-27T04:55:06.403Z,1001.66
2019-02-27T04:56:06.391Z,1001.62
2019-02-27T04:57:06.381Z,1001.63
2019-02-27T04:58:08.581Z,1001.63
2019-02-27T04:59:06.365Z,1001.61
2019-02-27T05:00:06.458Z,1001.62
2019-02-27T05:01:06.338Z,1001.60
2019-02-27T05:02:06.327Z,1001.60
2019-02-27T05:03:06.314Z,1001.60
2019-02-27T05:04:06.304Z,1001.58
2019-02-27T05:05:08.601Z,1001.58
2019-02-27T05:06:06.320Z,1001.58
2019-02-27T05:07:06.336Z,1001.53
2019-02-27T05:08:06.265Z,1001.55
2019-02-27T05:09:06.250Z,1001.54
2019-02-27T05:10:07.271Z,1001.53
2019-02-27T05:11:06.227Z,1001.56
2019-02-27T05:12:06.220Z,1001.51
2019-02-27T05:13:06.262Z,1001.51
2019-02-27T05:14:06.194Z,1001.47
2019-02-27T05:15:06.209Z,1001.48
2019-02-27T05:16:06.171Z,1001.43
2019-02-27T05:17:06.159Z,1001.44
2019-02-27T05:18:06.149Z,1001.42
2019-02-27T05:19:06.156Z,1001.36
2019-02-27T05:20:06.149Z,1001.36
2019-02-27T05:21:06.119Z,1001.42
2019-02-27T05:22:06.110Z,1001.39
2019-02-27T05:23:06.094Z,1001.35
2019-02-27T05:24:07.661Z,1001.39
2019-02-27T05:25:06.159Z,1001.45
2019-02-27T05:26:06.058Z,1001.38
2019-02-27T05:27:06.046Z,1001.42
2019-02-27T05:28:06.035Z,1001.40
2019-02-27T05:29:06.026Z,1001.39
2019-02-27T05:30:06.039Z,1001.36
2019-02-27T05:31:06.073Z,1001.40
2019-02-27T05:32:05.990Z,1001.40
2019-02-27T05:33:05.983Z,1001.42
2019-02-27T05:34:05.969Z,1001.40
2019-02-27T05:35:05.985Z,1001.41
2019-02-27T05:36:05.957Z,1001.43
2019-02-27T05:37:06.073Z,1001.42
2019-02-27T05:38:05.923Z,1001.40
2019-02-27T05:39:05.911Z,1001.42
2019-02-27T05:40:05.954Z,1001.43
2019-02-27T05:41:05.888Z,1001.43
2019-02-27T05:42:06.384Z,1001.44
2019-02-27T05:43:05.918Z,1001.46
2019-02-27T05:44:05.857Z,1001.44
2019-02-27T05:45:05.868Z,1001.45
2019-02-27T05:46:05.834Z,1001.47
2019-02-27T05:47:05.829Z,1001.48
2019-02-27T05:48:05.886Z,1001.44
2019-02-27T05:49:05.807Z,1001.44
2019-02-27T05:50:05.825Z,1001.44
2019-02-27T05:51:07.537Z,1001.45
2019-02-27T05:52:05.770Z,1001.45
2019-02-27T05:53:05.756Z,1001.42
2019-02-27T05:54:05.803Z,1001.44
2019-02-27T05:55:06.373Z,1001.43
2019-02-27T05:56:05.745Z,1001.41
2019-02-27T05:57:05.716Z,1001.37
2019-02-27T05:58:05.699Z,1001.37
2019-02-27T05:59:05.700Z,1001.40
2019-02-27T06:00:07.098Z,1001.38
2019-02-27T06:01:05.924Z,1001.37
2019-02-27T06:02:05.663Z,1001.38
2019-02-27T06:03:05.641Z,1001.32
2019-02-27T06:04:05.629Z,1001.34
2019-02-27T06:05:05.623Z,1001.38
2019-02-27T06:06:06.758Z,1001.38
2019-02-27T06:07:05.595Z,1001.33
2019-02-27T06:08:05.590Z,1001.37
2019-02-27T06:09:10.069Z,1001.34
2019-02-27T06:10:05.629Z,1001.35
2019-02-27T06:11:05.577Z,1001.33
2019-02-27T06:12:06.848Z,1001.32
2019-02-27T06:13:05.531Z,1001.32
2019-02-27T06:14:05.523Z,1001.30
2019-02-27T06:15:05.513Z,1001.26
2019-02-27T06:16:08.948Z,1001.32
2019-02-27T06:17:05.487Z,1001.30
2019-02-27T06:18:05.476Z,1001.29
2019-02-27T06:19:05.497Z,1001.26
2019-02-27T06:20:07.692Z,1001.31
2019-02-27T06:21:05.464Z,1001.31
2019-02-27T06:22:05.989Z,1001.29
2019-02-27T06:23:07.247Z,1001.24
2019-02-27T06:24:05.418Z,1001.30
2019-02-27T06:25:05.416Z,1001.34
2019-02-27T06:26:05.546Z,1001.32
2019-02-27T06:27:06.283Z,1001.36
2019-02-27T06:28:05.364Z,1001.34
2019-02-27T06:29:05.355Z,1001.35
2019-02-27T06:30:05.367Z,1001.34
2019-02-27T06:31:05.351Z,1001.35
2019-02-27T06:32:05.373Z,1001.32
2019-02-27T06:33:05.312Z,1001.31
2019-02-27T06:34:05.295Z,1001.34
2019-02-27T06:35:05.287Z,1001.37
2019-02-27T06:36:07.704Z,1001.37
2019-02-27T06:37:05.270Z,1001.35
2019-02-27T06:38:05.306Z,1001.44
2019-02-27T06:39:05.242Z,1001.43
2019-02-27T06:40:07.392Z,1001.45
2019-02-27T06:41:05.245Z,1001.47
2019-02-27T06:42:05.232Z,1001.50
2019-02-27T06:43:05.195Z,1001.48
2019-02-27T06:44:05.192Z,1001.49
2019-02-27T06:45:05.249Z,1001.50
2019-02-27T06:46:05.203Z,1001.52
2019-02-27T06:47:07.119Z,1001.47
2019-02-27T06:48:09.330Z,1001.42
2019-02-27T06:49:06.128Z,1001.44
2019-02-27T06:50:05.124Z,1001.43
2019-02-27T06:51:05.139Z,1001.44
2019-02-27T06:52:08.988Z,1001.42
2019-02-27T06:53:05.092Z,1001.45
2019-02-27T06:54:05.078Z,1001.39
2019-02-27T06:55:05.066Z,1001.39
2019-02-27T06:56:05.056Z,1001.43
2019-02-27T06:57:07.749Z,1001.39
2019-02-27T06:58:05.161Z,1001.34
2019-02-27T06:59:05.020Z,1001.38
2019-02-27T07:00:05.010Z,1001.35
2019-02-27T07:01:09.174Z,1001.35
2019-02-27T07:02:06.046Z,1001.32
2019-02-27T07:03:04.979Z,1001.30
2019-02-27T07:04:05.454Z,1001.29
2019-02-27T07:05:05.126Z,1001.29
2019-02-27T07:06:05.070Z,1001.26
2019-02-27T07:07:04.964Z,1001.23
2019-02-27T07:08:05.339Z,1001.22
2019-02-27T07:09:05.115Z,1001.20
2019-02-27T07:10:04.990Z,1001.22
2019-02-27T07:11:10.822Z,1001.10
2019-02-27T07:12:07.245Z,1001.14
2019-02-27T07:13:04.869Z,1001.10
2019-02-27T07:14:04.965Z,1001.10
2019-02-27T07:15:04.851Z,1001.14
2019-02-27T07:16:04.839Z,1001.11
2019-02-27T07:17:04.843Z,1001.08
2019-02-27T07:18:06.140Z,1001.12
2019-02-27T07:19:04.824Z,1001.06
2019-02-27T07:20:04.787Z,1001.12
2019-02-27T07:21:04.775Z,1001.10
2019-02-27T07:22:06.251Z,1001.09
2019-02-27T07:23:04.759Z,1001.12
2019-02-27T07:24:04.745Z,1001.05
2019-02-27T07:25:06.621Z,1001.09
2019-02-27T07:26:04.720Z,1001.08
2019-02-27T07:27:04.738Z,1001.07
2019-02-27T07:28:08.416Z,1001.07
2019-02-27T07:29:04.709Z,1001.06
2019-02-27T07:30:04.880Z,1001.04
2019-02-27T07:31:04.665Z,1001.05
2019-02-27T07:32:04.680Z,1001.04
2019-02-27T07:33:06.738Z,1001.06
2019-02-27T07:34:04.633Z,1000.98
2019-02-27T07:35:04.633Z,1000.95
2019-02-27T07:36:04.610Z,1000.94
2019-02-27T07:37:04.602Z,1000.93
2019-02-27T07:38:04.609Z,1000.91
2019-02-27T07:39:04.599Z,1000.91
2019-02-27T07:40:07.943Z,1000.86
2019-02-27T07:41:04.552Z,1000.88
2019-02-27T07:42:04.550Z,1000.88
2019-02-27T07:43:05.765Z,1000.85
2019-02-27T07:44:04.551Z,1000.86
2019-02-27T07:45:04.510Z,1000.88
2019-02-27T07:46:04.501Z,1000.86
2019-02-27T07:47:04.490Z,1000.83
2019-02-27T07:48:04.501Z,1000.83
2019-02-27T07:49:04.506Z,1000.73
2019-02-27T07:50:06.361Z,1000.77
2019-02-27T07:51:04.481Z,1000.79
2019-02-27T07:52:04.431Z,1000.83
2019-02-27T07:53:04.453Z,1000.79
2019-02-27T07:54:04.411Z,1000.78
2019-02-27T07:55:15.547Z,1000.79
2019-02-27T07:56:05.385Z,1000.80
2019-02-27T07:57:04.375Z,1000.79
2019-02-27T07:58:04.392Z,1000.73
2019-02-27T07:59:04.356Z,1000.75
2019-02-27T08:00:04.366Z,1000.68
2019-02-27T08:01:04.752Z,1000.69
2019-02-27T08:02:04.328Z,1000.69
2019-02-27T08:03:09.215Z,1000.72
2019-02-27T08:04:05.301Z,1000.72
2019-02-27T08:05:04.291Z,1000.63
2019-02-27T08:06:04.320Z,1000.61
2019-02-27T08:07:04.266Z,1000.61
2019-02-27T08:08:04.282Z,1000.69
2019-02-27T08:09:04.294Z,1000.64
2019-02-27T08:10:04.789Z,1000.68
2019-02-27T08:11:04.234Z,1000.66
2019-02-27T08:12:04.238Z,1000.68
2019-02-27T08:13:04.247Z,1000.68
2019-02-27T08:14:04.200Z,1000.61
2019-02-27T08:15:04.503Z,1000.61
2019-02-27T08:16:04.169Z,1000.61
2019-02-27T08:17:16.779Z,1000.59
2019-02-27T08:18:05.254Z,1000.53
2019-02-27T08:19:04.133Z,1000.55
2019-02-27T08:20:04.168Z,1000.54
2019-02-27T08:21:04.114Z,1000.54
2019-02-27T08:22:04.106Z,1000.56
2019-02-27T08:23:04.145Z,1000.60
2019-02-27T08:24:07.480Z,1000.61
2019-02-27T08:25:04.068Z,1000.63
2019-02-27T08:26:05.115Z,1000.57
2019-02-27T08:27:04.044Z,1000.54
2019-02-27T08:28:04.035Z,1000.53
2019-02-27T08:29:04.055Z,1000.51
2019-02-27T08:30:04.014Z,1000.46
2019-02-27T08:31:04.017Z,1000.46
2019-02-27T08:32:05.485Z,1000.45
2019-02-27T08:33:08.165Z,1000.49
2019-02-27T08:34:04.003Z,1000.47
2019-02-27T08:35:04.008Z,1000.53
2019-02-27T08:36:04.028Z,1000.54
2019-02-27T08:37:03.958Z,1000.56
2019-02-27T08:38:03.935Z,1000.54
2019-02-27T08:39:03.947Z,1000.53
2019-02-27T08:40:03.947Z,1000.54
2019-02-27T08:41:03.983Z,1000.54
2019-02-27T08:42:04.147Z,1000.48
2019-02-27T08:43:03.881Z,1000.47
2019-02-27T08:44:03.898Z,1000.43
2019-02-27T08:45:03.857Z,1000.49
2019-02-27T08:46:03.850Z,1000.47
2019-02-27T08:47:04.317Z,1000.37
2019-02-27T08:48:03.822Z,1000.41
2019-02-27T08:49:03.832Z,1000.42
2019-02-27T08:50:03.827Z,1000.44
2019-02-27T08:51:08.383Z,1000.42
2019-02-27T08:52:03.779Z,1000.40
2019-02-27T08:53:03.768Z,1000.47
2019-02-27T08:54:03.803Z,1000.44
2019-02-27T08:55:05.723Z,1000.44
2019-02-27T08:56:03.732Z,1000.44
2019-02-27T08:57:03.723Z,1000.44
2019-02-27T08:58:03.761Z,1000.46
2019-02-27T08:59:05.815Z,1000.45
2019-02-27T09:00:03.704Z,1000.43
2019-02-27T09:01:03.726Z,1000.39
2019-02-27T09:02:03.667Z,1000.39
2019-02-27T09:03:03.842Z,1000.37
2019-02-27T09:04:03.689Z,1000.31
2019-02-27T09:05:03.641Z,1000.31
2019-02-27T09:06:03.631Z,1000.28
2019-02-27T09:07:03.755Z,1000.21
2019-02-27T09:08:03.632Z,1000.22
2019-02-27T09:09:03.686Z,1000.20
2019-02-27T09:10:03.588Z,1000.22
2019-02-27T09:11:06.594Z,1000.18
2019-02-27T09:12:03.609Z,1000.22
2019-02-27T09:13:05.889Z,1000.22
2019-02-27T09:14:03.684Z,1000.22
2019-02-27T09:15:03.551Z,1000.23
2019-02-27T09:16:03.548Z,1000.22
2019-02-27T09:17:03.508Z,1000.25
2019-02-27T09:18:03.495Z,1000.20
2019-02-27T09:19:03.611Z,1000.21
2019-02-27T09:20:03.474Z,1000.18
2019-02-27T09:21:03.471Z,1000.17
2019-02-27T09:22:03.455Z,1000.17
2019-02-27T09:23:03.447Z,1000.19
2019-02-27T09:24:03.427Z,1000.15
2019-02-27T09:25:03.447Z,1000.19
2019-02-27T09:26:03.519Z,1000.17
2019-02-27T09:27:03.401Z,1000.17
2019-02-27T09:28:03.604Z,1000.18
2019-02-27T09:29:03.387Z,1000.18
2019-02-27T09:30:03.385Z,1000.13
2019-02-27T09:31:04.426Z,1000.16
2019-02-27T09:32:03.339Z,1000.13
2019-02-27T09:33:03.332Z,1000.14
2019-02-27T09:34:03.320Z,1000.10
2019-02-27T09:35:03.334Z,1000.09
2019-02-27T09:36:03.298Z,1000.08
2019-02-27T09:37:03.285Z,1000.10
2019-02-27T09:38:03.299Z,1000.14
2019-02-27T09:39:03.264Z,1000.11
2019-02-27T09:40:05.697Z,1000.15
2019-02-27T09:41:03.244Z,1000.11
2019-02-27T09:42:03.257Z,1000.10
2019-02-27T09:43:03.221Z,1000.08
2019-02-27T09:44:03.214Z,1000.04
2019-02-27T09:45:03.227Z,1000.06
2019-02-27T09:46:03.187Z,1000.07
2019-02-27T09:47:03.193Z,1000.07
2019-02-27T09:48:03.167Z,1000.08
2019-02-27T09:49:06.857Z,1000.05
2019-02-27T09:50:03.176Z,1000.06
2019-02-27T09:51:03.153Z,1000.03
2019-02-27T09:52:03.169Z,1000.01
2019-02-27T09:53:03.649Z,1000.03
2019-02-27T09:54:03.119Z,1000.00
2019-02-27T09:55:03.113Z,1000.00
2019-02-27T09:56:03.077Z,999.95
2019-02-27T09:57:03.100Z,999.89
2019-02-27T09:58:03.063Z,999.89
2019-02-27T09:59:03.066Z,999.91
2019-02-27T10:00:03.078Z,999.91
2019-02-27T10:01:03.284Z,999.89
2019-02-27T10:02:03.071Z,999.89
2019-02-27T10:03:03.048Z,999.89
2019-02-27T10:04:02.993Z,999.92
2019-02-27T10:05:03.773Z,999.91
2019-02-27T10:06:02.975Z,999.86
2019-02-27T10:07:02.976Z,999.83
2019-02-27T10:08:02.949Z,999.81
2019-02-27T10:09:02.940Z,999.82
2019-02-27T10:10:02.953Z,999.83
2019-02-27T10:11:02.915Z,999.81
2019-02-27T10:12:02.914Z,999.80
2019-02-27T10:13:04.021Z,999.80
2019-02-27T10:14:02.905Z,999.78
2019-02-27T10:15:02.872Z,999.80
2019-02-27T10:16:03.720Z,999.78
2019-02-27T10:17:02.848Z,999.76
2019-02-27T10:18:02.848Z,999.76
2019-02-27T10:19:02.836Z,999.76
2019-02-27T10:20:02.982Z,999.77
2019-02-27T10:21:02.867Z,999.79
2019-02-27T10:22:02.796Z,999.75
2019-02-27T10:23:02.804Z,999.73
2019-02-27T10:24:04.850Z,999.69
2019-02-27T10:25:02.763Z,999.73
2019-02-27T10:26:02.796Z,999.67
2019-02-27T10:27:03.216Z,999.64
2019-02-27T10:28:04.350Z,999.65
2019-02-27T10:29:02.733Z,999.61
2019-02-27T10:30:11.146Z,999.62
2019-02-27T10:31:03.729Z,999.64
2019-02-27T10:32:02.689Z,999.60
2019-02-27T10:33:03.503Z,999.61
2019-02-27T10:34:02.669Z,999.56
2019-02-27T10:35:02.654Z,999.53
2019-02-27T10:36:03.698Z,999.50
2019-02-27T10:37:02.720Z,999.48
2019-02-27T10:38:02.631Z,999.47
2019-02-27T10:39:02.807Z,999.49
2019-02-27T10:40:02.621Z,999.48
2019-02-27T10:41:02.645Z,999.49
2019-02-27T10:42:02.594Z,999.47
2019-02-27T10:43:02.626Z,999.47
2019-02-27T10:44:02.593Z,999.45
2019-02-27T10:45:02.551Z,999.46
2019-02-27T10:46:02.572Z,999.45
2019-02-27T10:47:02.526Z,999.46
2019-02-27T10:48:02.525Z,999.46
2019-02-27T10:49:02.525Z,999.45
2019-02-27T10:50:03.106Z,999.45
2019-02-27T10:51:02.518Z,999.42
2019-02-27T10:52:02.476Z,999.43
2019-02-27T10:53:02.462Z,999.40
2019-02-27T10:54:05.302Z,999.40
2019-02-27T10:55:02.450Z,999.41
2019-02-27T10:56:02.484Z,999.38
2019-02-27T10:57:02.457Z,999.33
2019-02-27T10:58:02.427Z,999.35
2019-02-27T10:59:02.399Z,999.33
2019-02-27T11:00:02.386Z,999.35
2019-02-27T11:01:02.377Z,999.35
2019-02-27T11:02:02.390Z,999.34
2019-02-27T11:03:02.354Z,999.29
2019-02-27T11:04:03.109Z,999.36
2019-02-27T11:05:02.342Z,999.32
2019-02-27T11:06:02.326Z,999.34
2019-02-27T11:07:02.350Z,999.34
2019-02-27T11:08:02.308Z,999.31
2019-02-27T11:09:04.737Z,999.30
2019-02-27T11:10:02.281Z,999.30
2019-02-27T11:11:02.280Z,999.27
2019-02-27T11:12:02.281Z,999.23
2019-02-27T11:13:05.618Z,999.23
2019-02-27T11:14:02.235Z,999.22
2019-02-27T11:15:02.256Z,999.25
2019-02-27T11:16:02.235Z,999.22
2019-02-27T11:17:03.261Z,999.21
2019-02-27T11:18:05.419Z,999.22
2019-02-27T11:19:02.215Z,999.18
2019-02-27T11:20:02.200Z,999.22
2019-02-27T11:21:02.160Z,999.17
2019-02-27T11:22:02.209Z,999.17
2019-02-27T11:23:06.441Z,999.17
2019-02-27T11:24:02.189Z,999.16
2019-02-27T11:25:02.561Z,999.11
2019-02-27T11:26:02.147Z,999.11
2019-02-27T11:27:03.503Z,999.12
2019-02-27T11:28:02.269Z,999.13
2019-02-27T11:29:02.125Z,999.07
2019-02-27T11:30:03.335Z,999.01
2019-02-27T11:31:02.084Z,998.99
2019-02-27T11:32:02.183Z,998.98
2019-02-27T11:33:02.029Z,998.99
2019-02-27T11:34:02.093Z,998.97
2019-02-27T11:35:02.015Z,998.99
2019-02-27T11:36:03.192Z,998.95
2019-02-27T11:37:02.045Z,998.93
2019-02-27T11:38:02.011Z,998.95
2019-02-27T12:01:56.971Z,998.53
2019-02-27T12:02:56.998Z,998.46
2019-02-27T12:03:57.043Z,998.44
2019-02-27T12:04:56.916Z,998.39
2019-02-27T12:05:56.913Z,998.41
2019-02-27T12:06:56.893Z,998.39
2019-02-27T12:07:56.953Z,998.32
2019-02-27T12:08:59.582Z,998.35
2019-02-27T12:09:56.858Z,998.33
2019-02-27T12:10:56.850Z,998.30
2019-02-27T12:11:56.839Z,998.34
2019-02-27T12:13:00.926Z,998.32
2019-02-27T12:13:56.887Z,998.27
2019-02-27T12:14:59.763Z,998.29
2019-02-27T12:15:56.890Z,998.21
2019-02-27T12:16:57.031Z,998.20
2019-02-27T12:17:59.900Z,998.19
2019-02-27T12:18:56.781Z,998.21
2019-02-27T12:19:56.778Z,998.17
2019-02-27T12:20:56.746Z,998.17
2019-02-27T12:21:59.477Z,998.17
2019-02-27T12:22:56.766Z,998.18
2019-02-27T12:23:56.713Z,998.16
2019-02-27T12:24:58.267Z,998.18
2019-02-27T12:25:56.785Z,998.19
2019-02-27T12:26:56.943Z,998.13
2019-02-27T12:27:57.238Z,998.12
2019-02-27T12:28:56.759Z,998.10
2019-02-27T12:29:56.665Z,998.07
2019-02-27T12:30:56.718Z,998.05
2019-02-27T12:31:56.640Z,998.01